Indianola, Washington
Current Conditions -  °F | °C
As of 1:53 AM on Wednesday 26 Nov 2014 (Local Time) from KPAE Reporting Station
Overcast Overcast  
Wind Chill: 55°   Ceiling: 800
Heat Index: 55°   Visibility: 10mi
Dew Point: 52°   Wind: 21mph
Humidity: 89%   Direction: 200°SSW
Pressure: 30.13"   Gusts: 31mph
Location:  47.75°N, 122.53°W
Report Text: KPAE 260953Z AUTO 20018G27KT 10SM OVC008 13/11 A3013 RMK AO2 PK WND 20030/0933 SLP202 T01280111
Loading
Personal Weather Stations






























Interactive Weather Map New forecast layout! Learn more

10-Day Weather Forecast

Advertisements
Track Severe Weather on mobile